sensor_id;sensor_type;location;lat;lon;timestamp;temperature;humidity
76120;DHT22;64852;48.092;-1.640;2023-01-04T00:00:10;14.90;99.90
76120;DHT22;64852;48.092;-1.640;2023-01-04T00:02:36;15.00;99.90
76120;DHT22;64852;48.092;-1.640;2023-01-04T00:05:02;15.10;99.90
76120;DHT22;64852;48.092;-1.640;2023-01-04T00:07:29;14.90;99.90
76120;DHT22;64852;48.092;-1.640;2023-01-04T00:09:54;14.90;99.90
76120;DHT22;64852;48.092;-1.640;2023-01-04T00:12:21;14.80;99.90
76120;DHT22;64852;48.092;-1.640;2023-01-04T00:14:46;14.90;99.90
76120;DHT22;64852;48.092;-1.640;2023-01-04T00:17:12;14.90;99.90
76120;DHT22;64852;48.092;-1.640;2023-01-04T00:19:38;14.90;99.90
76120;DHT22;64852;48.092;-1.640;2023-01-04T00:22:03;15.00;99.90
76120;DHT22;64852;48.092;-1.640;2023-01-04T00:24:29;15.10;99.90
76120;DHT22;64852;48.092;-1.640;2023-01-04T00:26:55;15.00;99.90
76120;DHT22;64852;48.092;-1.640;2023-01-04T00:29:20;15.20;99.90
76120;DHT22;64852;48.092;-1.640;2023-01-04T00:31:46;15.10;99.90
76120;DHT22;64852;48.092;-1.640;2023-01-04T00:34:13;15.10;99.90
76120;DHT22;64852;48.092;-1.640;2023-01-04T00:36:40;15.20;99.90
76120;DHT22;64852;48.092;-1.640;2023-01-04T00:39:06;15.20;99.90
76120;DHT22;64852;48.092;-1.640;2023-01-04T00:41:52;15.10;99.90
76120;DHT22;64852;48.092;-1.640;2023-01-04T00:44:18;15.20;99.90
76120;DHT22;64852;48.092;-1.640;2023-01-04T00:46:46;15.20;99.90
76120;DHT22;64852;48.092;-1.640;2023-01-04T00:49:12;15.10;99.90
76120;DHT22;64852;48.092;-1.640;2023-01-04T00:51:39;14.90;99.90
76120;DHT22;64852;48.092;-1.640;2023-01-04T00:54:08;14.90;99.90
76120;DHT22;64852;48.092;-1.640;2023-01-04T00:56:35;14.90;99.90
76120;DHT22;64852;48.092;-1.640;2023-01-04T00:59:02;14.90;99.90
76120;DHT22;64852;48.092;-1.640;2023-01-04T01:01:29;15.00;99.90
76120;DHT22;64852;48.092;-1.640;2023-01-04T01:03:57;15.10;99.90
76120;DHT22;64852;48.092;-1.640;2023-01-04T01:06:24;15.20;99.90
76120;DHT22;64852;48.092;-1.640;2023-01-04T01:08:50;15.30;99.90
76120;DHT22;64852;48.092;-1.640;2023-01-04T01:11:17;15.20;99.90
76120;DHT22;64852;48.092;-1.640;2023-01-04T01:13:42;15.20;99.90
76120;DHT22;64852;48.092;-1.640;2023-01-04T01:16:11;15.10;99.90
76120;DHT22;64852;48.092;-1.640;2023-01-04T01:18:39;14.80;99.90
76120;DHT22;64852;48.092;-1.640;2023-01-04T01:21:06;14.90;99.90
76120;DHT22;64852;48.092;-1.640;2023-01-04T01:23:32;14.90;99.90
76120;DHT22;64852;48.092;-1.640;2023-01-04T01:26:03;14.90;99.90
76120;DHT22;64852;48.092;-1.640;2023-01-04T01:28:29;14.80;99.90
76120;DHT22;64852;48.092;-1.640;2023-01-04T01:30:55;14.70;99.90
76120;DHT22;64852;48.092;-1.640;2023-01-04T01:33:24;14.70;99.90
76120;DHT22;64852;48.092;-1.640;2023-01-04T01:35:50;14.60;99.90
76120;DHT22;64852;48.092;-1.640;2023-01-04T01:38:15;14.60;99.90
76120;DHT22;64852;48.092;-1.640;2023-01-04T01:40:42;14.60;99.90
76120;DHT22;64852;48.092;-1.640;2023-01-04T01:43:20;14.50;99.90
76120;DHT22;64852;48.092;-1.640;2023-01-04T01:45:49;14.40;99.90
76120;DHT22;64852;48.092;-1.640;2023-01-04T01:48:22;14.40;99.90
76120;DHT22;64852;48.092;-1.640;2023-01-04T01:51:00;14.20;99.90
76120;DHT22;64852;48.092;-1.640;2023-01-04T01:53:29;14.30;99.90
76120;DHT22;64852;48.092;-1.640;2023-01-04T01:55:56;14.30;99.90
76120;DHT22;64852;48.092;-1.640;2023-01-04T01:58:44;14.40;99.90
76120;DHT22;64852;48.092;-1.640;2023-01-04T02:01:10;14.60;99.90
76120;DHT22;64852;48.092;-1.640;2023-01-04T02:03:41;14.60;99.90
76120;DHT22;64852;48.092;-1.640;2023-01-04T02:06:13;14.70;99.90
76120;DHT22;64852;48.092;-1.640;2023-01-04T02:08:41;14.70;99.90
76120;DHT22;64852;48.092;-1.640;2023-01-04T02:11:07;14.70;99.90
76120;DHT22;64852;48.092;-1.640;2023-01-04T02:13:34;14.70;99.90
76120;DHT22;64852;48.092;-1.640;2023-01-04T02:19:41;14.50;99.90
76120;DHT22;64852;48.092;-1.640;2023-01-04T02:25:08;14.60;99.90
76120;DHT22;64852;48.092;-1.640;2023-01-04T02:28:20;14.70;99.90
76120;DHT22;64852;48.092;-1.640;2023-01-04T02:33:57;14.60;99.90
76120;DHT22;64852;48.092;-1.640;2023-01-04T02:39:43;14.90;99.90
76120;DHT22;64852;48.092;-1.640;2023-01-04T02:44:49;15.00;99.90
76120;DHT22;64852;48.092;-1.640;2023-01-04T02:47:37;15.10;99.90
76120;DHT22;64852;48.092;-1.640;2023-01-04T02:50:29;15.20;99.90
76120;DHT22;64852;48.092;-1.640;2023-01-04T02:52:59;15.40;99.90
76120;DHT22;64852;48.092;-1.640;2023-01-04T02:55:32;15.40;99.90
76120;DHT22;64852;48.092;-1.640;2023-01-04T02:58:08;15.50;99.90
76120;DHT22;64852;48.092;-1.640;2023-01-04T03:00:42;15.50;99.90
76120;DHT22;64852;48.092;-1.640;2023-01-04T03:03:43;15.30;99.90
76120;DHT22;64852;48.092;-1.640;2023-01-04T03:06:39;15.30;99.90
76120;DHT22;64852;48.092;-1.640;2023-01-04T03:09:21;15.10;99.90
76120;DHT22;64852;48.092;-1.640;2023-01-04T03:12:03;14.90;99.90
76120;DHT22;64852;48.092;-1.640;2023-01-04T03:17:37;14.70;99.90
76120;DHT22;64852;48.092;-1.640;2023-01-04T03:20:06;14.80;99.90
76120;DHT22;64852;48.092;-1.640;2023-01-04T03:25:21;14.60;99.90
76120;DHT22;64852;48.092;-1.640;2023-01-04T03:28:10;14.60;99.90
76120;DHT22;64852;48.092;-1.640;2023-01-04T03:31:17;14.50;99.90
76120;DHT22;64852;48.092;-1.640;2023-01-04T03:34:03;14.60;99.90
76120;DHT22;64852;48.092;-1.640;2023-01-04T03:39:41;14.90;99.90
76120;DHT22;64852;48.092;-1.640;2023-01-04T03:45:30;15.00;99.90
76120;DHT22;64852;48.092;-1.640;2023-01-04T03:48:27;15.30;99.90
76120;DHT22;64852;48.092;-1.640;2023-01-04T03:53:32;15.40;99.90
76120;DHT22;64852;48.092;-1.640;2023-01-04T03:55:59;15.30;99.90
76120;DHT22;64852;48.092;-1.640;2023-01-04T03:58:26;15.40;99.90
76120;DHT22;64852;48.092;-1.640;2023-01-04T04:00:51;15.40;99.90
76120;DHT22;64852;48.092;-1.640;2023-01-04T04:03:17;15.40;99.90
76120;DHT22;64852;48.092;-1.640;2023-01-04T04:05:43;15.30;99.90
76120;DHT22;64852;48.092;-1.640;2023-01-04T04:08:28;15.40;99.90
76120;DHT22;64852;48.092;-1.640;2023-01-04T04:11:00;15.50;99.90
76120;DHT22;64852;48.092;-1.640;2023-01-04T04:13:46;15.50;99.90
76120;DHT22;64852;48.092;-1.640;2023-01-04T04:16:11;15.40;99.90
76120;DHT22;64852;48.092;-1.640;2023-01-04T04:18:37;15.50;99.90
76120;DHT22;64852;48.092;-1.640;2023-01-04T04:21:03;15.50;99.90
76120;DHT22;64852;48.092;-1.640;2023-01-04T04:23:28;15.50;99.90
76120;DHT22;64852;48.092;-1.640;2023-01-04T04:25:54;15.50;99.90
76120;DHT22;64852;48.092;-1.640;2023-01-04T04:28:20;15.30;99.90
76120;DHT22;64852;48.092;-1.640;2023-01-04T04:30:48;15.40;99.90
76120;DHT22;64852;48.092;-1.640;2023-01-04T04:33:14;15.40;99.90
76120;DHT22;64852;48.092;-1.640;2023-01-04T04:35:40;15.30;99.90
76120;DHT22;64852;48.092;-1.640;2023-01-04T04:38:05;15.50;99.90
76120;DHT22;64852;48.092;-1.640;2023-01-04T04:40:31;15.30;99.90
76120;DHT22;64852;48.092;-1.640;2023-01-04T04:43:15;15.40;99.90
76120;DHT22;64852;48.092;-1.640;2023-01-04T04:45:41;15.30;99.90
76120;DHT22;64852;48.092;-1.640;2023-01-04T04:48:07;15.30;99.90
76120;DHT22;64852;48.092;-1.640;2023-01-04T04:50:32;15.20;99.90
76120;DHT22;64852;48.092;-1.640;2023-01-04T04:52:58;15.20;99.90
76120;DHT22;64852;48.092;-1.640;2023-01-04T04:55:24;15.40;99.90
76120;DHT22;64852;48.092;-1.640;2023-01-04T04:57:49;15.50;99.90
76120;DHT22;64852;48.092;-1.640;2023-01-04T05:00:15;15.40;99.90
76120;DHT22;64852;48.092;-1.640;2023-01-04T05:02:42;15.40;99.90
76120;DHT22;64852;48.092;-1.640;2023-01-04T05:05:08;15.60;99.90
76120;DHT22;64852;48.092;-1.640;2023-01-04T05:07:33;15.30;99.90
76120;DHT22;64852;48.092;-1.640;2023-01-04T05:09:59;15.40;99.90
76120;DHT22;64852;48.092;-1.640;2023-01-04T05:12:25;15.30;99.90
76120;DHT22;64852;48.092;-1.640;2023-01-04T05:15:09;15.30;99.90
76120;DHT22;64852;48.092;-1.640;2023-01-04T05:17:35;15.30;99.90
76120;DHT22;64852;48.092;-1.640;2023-01-04T05:20:01;15.30;99.90
76120;DHT22;64852;48.092;-1.640;2023-01-04T05:22:27;15.30;99.90
76120;DHT22;64852;48.092;-1.640;2023-01-04T05:24:52;15.50;99.90
76120;DHT22;64852;48.092;-1.640;2023-01-04T05:27:18;15.50;99.90
76120;DHT22;64852;48.092;-1.640;2023-01-04T05:29:43;15.30;99.90
76120;DHT22;64852;48.092;-1.640;2023-01-04T05:32:28;15.40;99.90
76120;DHT22;64852;48.092;-1.640;2023-01-04T05:34:53;15.40;99.90
76120;DHT22;64852;48.092;-1.640;2023-01-04T05:37:19;15.40;99.90
76120;DHT22;64852;48.092;-1.640;2023-01-04T05:39:45;15.40;99.90
76120;DHT22;64852;48.092;-1.640;2023-01-04T05:42:10;15.30;99.90
76120;DHT22;64852;48.092;-1.640;2023-01-04T05:44:54;15.40;99.90
76120;DHT22;64852;48.092;-1.640;2023-01-04T05:47:20;15.40;99.90
76120;DHT22;64852;48.092;-1.640;2023-01-04T05:49:46;15.20;99.90
76120;DHT22;64852;48.092;-1.640;2023-01-04T05:52:11;15.10;99.90
76120;DHT22;64852;48.092;-1.640;2023-01-04T05:54:37;14.80;99.90
76120;DHT22;64852;48.092;-1.640;2023-01-04T05:57:03;14.80;99.90
76120;DHT22;64852;48.092;-1.640;2023-01-04T05:59:28;14.80;99.90
76120;DHT22;64852;48.092;-1.640;2023-01-04T06:01:54;14.80;99.90
76120;DHT22;64852;48.092;-1.640;2023-01-04T06:04:20;14.90;99.90
76120;DHT22;64852;48.092;-1.640;2023-01-04T06:06:45;14.80;99.90
76120;DHT22;64852;48.092;-1.640;2023-01-04T06:09:11;15.10;99.90
76120;DHT22;64852;48.092;-1.640;2023-01-04T06:11:37;15.20;99.90
76120;DHT22;64852;48.092;-1.640;2023-01-04T06:14:02;15.00;99.90
76120;DHT22;64852;48.092;-1.640;2023-01-04T06:16:28;15.00;99.90
76120;DHT22;64852;48.092;-1.640;2023-01-04T06:18:54;15.00;99.90
76120;DHT22;64852;48.092;-1.640;2023-01-04T06:21:19;15.10;99.90
76120;DHT22;64852;48.092;-1.640;2023-01-04T06:23:45;15.30;99.90
76120;DHT22;64852;48.092;-1.640;2023-01-04T06:26:11;15.10;99.90
76120;DHT22;64852;48.092;-1.640;2023-01-04T06:28:36;15.10;99.90
76120;DHT22;64852;48.092;-1.640;2023-01-04T06:31:07;15.00;99.90
76120;DHT22;64852;48.092;-1.640;2023-01-04T06:33:33;15.00;99.90
76120;DHT22;64852;48.092;-1.640;2023-01-04T06:35:59;15.10;99.90
76120;DHT22;64852;48.092;-1.640;2023-01-04T06:38:25;15.20;99.90
76120;DHT22;64852;48.092;-1.640;2023-01-04T06:40:51;15.20;99.90
76120;DHT22;64852;48.092;-1.640;2023-01-04T06:43:17;15.50;99.90
76120;DHT22;64852;48.092;-1.640;2023-01-04T06:45:43;15.20;99.90
76120;DHT22;64852;48.092;-1.640;2023-01-04T06:48:09;15.20;99.90
76120;DHT22;64852;48.092;-1.640;2023-01-04T06:50:34;15.10;99.90
76120;DHT22;64852;48.092;-1.640;2023-01-04T06:53:00;15.30;99.90
76120;DHT22;64852;48.092;-1.640;2023-01-04T06:55:26;15.30;99.90
76120;DHT22;64852;48.092;-1.640;2023-01-04T06:57:54;15.20;99.90
76120;DHT22;64852;48.092;-1.640;2023-01-04T07:00:20;15.00;99.90
76120;DHT22;64852;48.092;-1.640;2023-01-04T07:02:46;15.00;99.90
76120;DHT22;64852;48.092;-1.640;2023-01-04T07:05:12;15.00;99.90
76120;DHT22;64852;48.092;-1.640;2023-01-04T07:07:37;14.90;99.90
76120;DHT22;64852;48.092;-1.640;2023-01-04T07:10:04;15.00;99.90
76120;DHT22;64852;48.092;-1.640;2023-01-04T07:12:30;15.20;99.90
76120;DHT22;64852;48.092;-1.640;2023-01-04T07:14:56;15.20;99.90
76120;DHT22;64852;48.092;-1.640;2023-01-04T07:17:21;15.20;99.90
76120;DHT22;64852;48.092;-1.640;2023-01-04T07:19:47;15.20;99.90
76120;DHT22;64852;48.092;-1.640;2023-01-04T07:22:12;15.20;99.90
76120;DHT22;64852;48.092;-1.640;2023-01-04T07:24:38;15.10;99.90
76120;DHT22;64852;48.092;-1.640;2023-01-04T07:27:04;14.90;99.90
76120;DHT22;64852;48.092;-1.640;2023-01-04T07:29:29;14.80;99.90
76120;DHT22;64852;48.092;-1.640;2023-01-04T07:31:55;15.00;99.90
76120;DHT22;64852;48.092;-1.640;2023-01-04T07:34:23;15.10;99.90
76120;DHT22;64852;48.092;-1.640;2023-01-04T07:36:49;15.20;99.90
76120;DHT22;64852;48.092;-1.640;2023-01-04T07:39:16;15.30;99.90
76120;DHT22;64852;48.092;-1.640;2023-01-04T07:41:43;15.20;99.90
76120;DHT22;64852;48.092;-1.640;2023-01-04T07:44:10;15.00;99.90
76120;DHT22;64852;48.092;-1.640;2023-01-04T07:46:36;15.20;99.90
76120;DHT22;64852;48.092;-1.640;2023-01-04T07:49:03;15.20;99.90
76120;DHT22;64852;48.092;-1.640;2023-01-04T07:51:29;15.40;99.90
76120;DHT22;64852;48.092;-1.640;2023-01-04T07:53:55;15.40;99.90
76120;DHT22;64852;48.092;-1.640;2023-01-04T07:56:21;15.60;99.90
76120;DHT22;64852;48.092;-1.640;2023-01-04T07:58:47;15.60;99.90
76120;DHT22;64852;48.092;-1.640;2023-01-04T08:01:15;15.50;99.90
76120;DHT22;64852;48.092;-1.640;2023-01-04T08:03:41;15.60;99.90
76120;DHT22;64852;48.092;-1.640;2023-01-04T08:06:10;15.70;99.90
76120;DHT22;64852;48.092;-1.640;2023-01-04T08:08:36;15.70;99.90
76120;DHT22;64852;48.092;-1.640;2023-01-04T08:11:08;15.70;99.90
76120;DHT22;64852;48.092;-1.640;2023-01-04T08:13:34;15.60;99.90
76120;DHT22;64852;48.092;-1.640;2023-01-04T08:16:00;15.60;99.90
76120;DHT22;64852;48.092;-1.640;2023-01-04T08:18:26;15.70;99.90
76120;DHT22;64852;48.092;-1.640;2023-01-04T08:21:08;15.70;99.90
76120;DHT22;64852;48.092;-1.640;2023-01-04T08:23:35;15.80;99.90
76120;DHT22;64852;48.092;-1.640;2023-01-04T08:26:05;15.80;99.90
76120;DHT22;64852;48.092;-1.640;2023-01-04T08:28:32;15.70;99.90
76120;DHT22;64852;48.092;-1.640;2023-01-04T08:30:58;15.70;99.90
76120;DHT22;64852;48.092;-1.640;2023-01-04T08:33:24;15.60;99.90
76120;DHT22;64852;48.092;-1.640;2023-01-04T08:35:49;15.60;99.90
76120;DHT22;64852;48.092;-1.640;2023-01-04T08:38:15;15.50;99.90
76120;DHT22;64852;48.092;-1.640;2023-01-04T08:40:41;15.50;99.90
76120;DHT22;64852;48.092;-1.640;2023-01-04T08:43:06;15.50;99.90
76120;DHT22;64852;48.092;-1.640;2023-01-04T08:45:32;15.50;99.90
76120;DHT22;64852;48.092;-1.640;2023-01-04T08:47:58;15.60;99.90
76120;DHT22;64852;48.092;-1.640;2023-01-04T08:50:23;15.60;99.90
76120;DHT22;64852;48.092;-1.640;2023-01-04T08:52:49;15.50;99.90
76120;DHT22;64852;48.092;-1.640;2023-01-04T08:55:15;15.60;99.90
76120;DHT22;64852;48.092;-1.640;2023-01-04T08:57:41;15.60;99.90
76120;DHT22;64852;48.092;-1.640;2023-01-04T09:00:07;15.60;99.90
76120;DHT22;64852;48.092;-1.640;2023-01-04T09:02:33;15.60;99.90
76120;DHT22;64852;48.092;-1.640;2023-01-04T09:04:59;15.60;99.90
76120;DHT22;64852;48.092;-1.640;2023-01-04T09:07:31;15.60;99.90
76120;DHT22;64852;48.092;-1.640;2023-01-04T09:09:57;15.80;99.90
76120;DHT22;64852;48.092;-1.640;2023-01-04T09:12:25;15.70;99.90
76120;DHT22;64852;48.092;-1.640;2023-01-04T09:14:51;15.60;99.90
76120;DHT22;64852;48.092;-1.640;2023-01-04T09:17:16;15.50;99.90
76120;DHT22;64852;48.092;-1.640;2023-01-04T09:19:42;15.60;99.90
76120;DHT22;64852;48.092;-1.640;2023-01-04T09:22:08;15.80;99.90
76120;DHT22;64852;48.092;-1.640;2023-01-04T09:24:34;15.50;99.90
76120;DHT22;64852;48.092;-1.640;2023-01-04T09:27:00;15.60;99.90
76120;DHT22;64852;48.092;-1.640;2023-01-04T09:29:25;15.60;99.90
76120;DHT22;64852;48.092;-1.640;2023-01-04T09:31:52;15.50;99.90
76120;DHT22;64852;48.092;-1.640;2023-01-04T09:34:18;15.40;99.90
76120;DHT22;64852;48.092;-1.640;2023-01-04T09:36:45;15.50;99.90
76120;DHT22;64852;48.092;-1.640;2023-01-04T09:39:11;15.30;99.90
76120;DHT22;64852;48.092;-1.640;2023-01-04T09:41:58;15.30;99.90
76120;DHT22;64852;48.092;-1.640;2023-01-04T09:47:14;15.20;99.90
76120;DHT22;64852;48.092;-1.640;2023-01-04T09:52:34;15.20;99.90
76120;DHT22;64852;48.092;-1.640;2023-01-04T09:55:07;15.00;99.90
76120;DHT22;64852;48.092;-1.640;2023-01-04T09:57:40;15.00;99.90
76120;DHT22;64852;48.092;-1.640;2023-01-04T10:00:44;15.10;99.90
76120;DHT22;64852;48.092;-1.640;2023-01-04T10:03:23;15.30;99.90
76120;DHT22;64852;48.092;-1.640;2023-01-04T10:05:51;15.40;99.90
76120;DHT22;64852;48.092;-1.640;2023-01-04T10:08:19;15.30;99.90
76120;DHT22;64852;48.092;-1.640;2023-01-04T10:22:00;15.20;99.90
76120;DHT22;64852;48.092;-1.640;2023-01-04T10:30:20;15.50;99.90
76120;DHT22;64852;48.092;-1.640;2023-01-04T10:33:15;15.40;99.90
76120;DHT22;64852;48.092;-1.640;2023-01-04T10:35:45;15.50;99.90
76120;DHT22;64852;48.092;-1.640;2023-01-04T10:38:23;15.40;99.90
76120;DHT22;64852;48.092;-1.640;2023-01-04T10:40:50;15.30;99.90
76120;DHT22;64852;48.092;-1.640;2023-01-04T10:43:35;15.40;99.90
76120;DHT22;64852;48.092;-1.640;2023-01-04T10:46:09;15.50;99.90
76120;DHT22;64852;48.092;-1.640;2023-01-04T10:48:59;15.30;99.90
76120;DHT22;64852;48.092;-1.640;2023-01-04T10:51:41;15.40;99.90
76120;DHT22;64852;48.092;-1.640;2023-01-04T10:54:34;15.50;99.90
76120;DHT22;64852;48.092;-1.640;2023-01-04T11:00:23;14.50;99.90
76120;DHT22;64852;48.092;-1.640;2023-01-04T11:04:58;15.40;99.90
76120;DHT22;64852;48.092;-1.640;2023-01-04T11:10:14;15.40;99.90
76120;DHT22;64852;48.092;-1.640;2023-01-04T11:12:42;15.60;99.90
76120;DHT22;64852;48.092;-1.640;2023-01-04T11:15:08;15.30;99.90
76120;DHT22;64852;48.092;-1.640;2023-01-04T11:17:34;15.30;99.90
76120;DHT22;64852;48.092;-1.640;2023-01-04T11:20:00;15.30;99.90
76120;DHT22;64852;48.092;-1.640;2023-01-04T11:22:47;15.40;99.90
76120;DHT22;64852;48.092;-1.640;2023-01-04T11:25:19;15.60;99.90
76120;DHT22;64852;48.092;-1.640;2023-01-04T11:28:12;15.60;99.90
76120;DHT22;64852;48.092;-1.640;2023-01-04T11:33:24;15.50;99.90
76120;DHT22;64852;48.092;-1.640;2023-01-04T11:35:52;15.20;99.90
76120;DHT22;64852;48.092;-1.640;2023-01-04T11:38:23;15.20;99.90
76120;DHT22;64852;48.092;-1.640;2023-01-04T11:41:03;15.20;99.90
76120;DHT22;64852;48.092;-1.640;2023-01-04T11:43:34;15.30;99.90
76120;DHT22;64852;48.092;-1.640;2023-01-04T11:48:36;15.30;99.90
76120;DHT22;64852;48.092;-1.640;2023-01-04T11:51:03;15.50;99.90
76120;DHT22;64852;48.092;-1.640;2023-01-04T11:53:32;15.60;99.90
76120;DHT22;64852;48.092;-1.640;2023-01-04T11:56:11;15.60;99.90
76120;DHT22;64852;48.092;-1.640;2023-01-04T11:58:38;15.40;99.90
76120;DHT22;64852;48.092;-1.640;2023-01-04T12:01:04;15.40;99.90
76120;DHT22;64852;48.092;-1.640;2023-01-04T12:05:56;15.50;99.90
76120;DHT22;64852;48.092;-1.640;2023-01-04T12:08:29;15.40;99.90
76120;DHT22;64852;48.092;-1.640;2023-01-04T12:10:56;15.40;99.90
76120;DHT22;64852;48.092;-1.640;2023-01-04T12:13:23;15.30;99.90
76120;DHT22;64852;48.092;-1.640;2023-01-04T12:18:29;15.50;99.90
76120;DHT22;64852;48.092;-1.640;2023-01-04T12:21:00;15.40;99.90
76120;DHT22;64852;48.092;-1.640;2023-01-04T12:23:26;15.50;99.90
76120;DHT22;64852;48.092;-1.640;2023-01-04T12:25:53;15.60;99.90
76120;DHT22;64852;48.092;-1.640;2023-01-04T12:28:50;15.70;99.90
76120;DHT22;64852;48.092;-1.640;2023-01-04T12:33:51;15.60;99.90
76120;DHT22;64852;48.092;-1.640;2023-01-04T12:44:56;15.50;99.90
76120;DHT22;64852;48.092;-1.640;2023-01-04T12:50:21;15.70;99.90
76120;DHT22;64852;48.092;-1.640;2023-01-04T12:53:01;15.50;99.90
76120;DHT22;64852;48.092;-1.640;2023-01-04T12:58:02;15.60;99.90
76120;DHT22;64852;48.092;-1.640;2023-01-04T13:08:20;15.70;99.90
76120;DHT22;64852;48.092;-1.640;2023-01-04T13:10:51;15.60;99.90
76120;DHT22;64852;48.092;-1.640;2023-01-04T13:21:40;16.00;99.90
76120;DHT22;64852;48.092;-1.640;2023-01-04T13:26:49;15.90;99.90
76120;DHT22;64852;48.092;-1.640;2023-01-04T13:29:25;15.80;99.90
76120;DHT22;64852;48.092;-1.640;2023-01-04T13:39:44;15.70;99.90
76120;DHT22;64852;48.092;-1.640;2023-01-04T13:42:32;15.60;99.90
76120;DHT22;64852;48.092;-1.640;2023-01-04T13:47:47;15.70;99.90
76120;DHT22;64852;48.092;-1.640;2023-01-04T13:52:51;15.90;99.90
76120;DHT22;64852;48.092;-1.640;2023-01-04T13:55:39;15.80;99.90
76120;DHT22;64852;48.092;-1.640;2023-01-04T13:58:14;15.90;99.90
76120;DHT22;64852;48.092;-1.640;2023-01-04T14:05:55;15.90;99.90
76120;DHT22;64852;48.092;-1.640;2023-01-04T14:08:33;15.90;99.90
76120;DHT22;64852;48.092;-1.640;2023-01-04T14:11:00;16.10;99.90
76120;DHT22;64852;48.092;-1.640;2023-01-04T14:13:26;16.10;99.90
76120;DHT22;64852;48.092;-1.640;2023-01-04T14:16:11;15.80;99.90
76120;DHT22;64852;48.092;-1.640;2023-01-04T14:18:37;15.80;99.90
76120;DHT22;64852;48.092;-1.640;2023-01-04T14:21:03;15.80;99.90
76120;DHT22;64852;48.092;-1.640;2023-01-04T14:23:34;15.60;99.90
76120;DHT22;64852;48.092;-1.640;2023-01-04T14:26:01;15.60;99.90
76120;DHT22;64852;48.092;-1.640;2023-01-04T14:28:35;15.70;99.90
76120;DHT22;64852;48.092;-1.640;2023-01-04T14:38:43;15.70;99.90
76120;DHT22;64852;48.092;-1.640;2023-01-04T14:46:30;15.70;99.90
76120;DHT22;64852;48.092;-1.640;2023-01-04T14:48:56;15.90;99.90
76120;DHT22;64852;48.092;-1.640;2023-01-04T14:51:25;15.60;99.90
76120;DHT22;64852;48.092;-1.640;2023-01-04T14:53:53;15.50;99.90
76120;DHT22;64852;48.092;-1.640;2023-01-04T14:56:19;15.60;99.90
76120;DHT22;64852;48.092;-1.640;2023-01-04T14:58:45;15.70;99.90
76120;DHT22;64852;48.092;-1.640;2023-01-04T15:01:11;15.90;99.90
76120;DHT22;64852;48.092;-1.640;2023-01-04T15:03:37;15.70;99.90
76120;DHT22;64852;48.092;-1.640;2023-01-04T15:06:03;15.50;99.90
76120;DHT22;64852;48.092;-1.640;2023-01-04T15:08:29;15.60;99.90
76120;DHT22;64852;48.092;-1.640;2023-01-04T15:10:55;15.60;99.90
76120;DHT22;64852;48.092;-1.640;2023-01-04T15:13:21;15.50;99.90
76120;DHT22;64852;48.092;-1.640;2023-01-04T15:15:47;15.50;99.90
76120;DHT22;64852;48.092;-1.640;2023-01-04T15:18:12;15.50;99.90
76120;DHT22;64852;48.092;-1.640;2023-01-04T15:20:39;15.70;99.90
76120;DHT22;64852;48.092;-1.640;2023-01-04T15:23:05;15.70;99.90
76120;DHT22;64852;48.092;-1.640;2023-01-04T15:25:30;15.70;99.90
76120;DHT22;64852;48.092;-1.640;2023-01-04T15:27:56;15.70;99.90
76120;DHT22;64852;48.092;-1.640;2023-01-04T15:30:22;15.70;99.90
76120;DHT22;64852;48.092;-1.640;2023-01-04T15:32:48;15.70;99.90
76120;DHT22;64852;48.092;-1.640;2023-01-04T15:35:14;15.70;99.90
76120;DHT22;64852;48.092;-1.640;2023-01-04T15:37:44;15.80;99.90
76120;DHT22;64852;48.092;-1.640;2023-01-04T15:40:13;15.80;99.90
76120;DHT22;64852;48.092;-1.640;2023-01-04T15:42:39;15.50;99.90
76120;DHT22;64852;48.092;-1.640;2023-01-04T15:45:34;15.50;99.90
76120;DHT22;64852;48.092;-1.640;2023-01-04T15:48:04;15.60;99.90
76120;DHT22;64852;48.092;-1.640;2023-01-04T15:50:32;15.60;99.90
76120;DHT22;64852;48.092;-1.640;2023-01-04T15:52:58;15.60;99.90
76120;DHT22;64852;48.092;-1.640;2023-01-04T15:55:24;15.60;99.90
76120;DHT22;64852;48.092;-1.640;2023-01-04T15:57:50;15.50;99.90
76120;DHT22;64852;48.092;-1.640;2023-01-04T16:00:16;15.50;99.90
76120;DHT22;64852;48.092;-1.640;2023-01-04T16:02:41;15.40;99.90
76120;DHT22;64852;48.092;-1.640;2023-01-04T16:05:07;15.50;99.90
76120;DHT22;64852;48.092;-1.640;2023-01-04T16:07:33;15.70;99.90
76120;DHT22;64852;48.092;-1.640;2023-01-04T16:09:59;15.60;99.90
76120;DHT22;64852;48.092;-1.640;2023-01-04T16:12:25;15.70;99.90
76120;DHT22;64852;48.092;-1.640;2023-01-04T16:15:11;15.70;99.90
76120;DHT22;64852;48.092;-1.640;2023-01-04T16:17:37;15.60;99.90
76120;DHT22;64852;48.092;-1.640;2023-01-04T16:20:04;15.50;99.90
76120;DHT22;64852;48.092;-1.640;2023-01-04T16:22:30;15.60;99.90
76120;DHT22;64852;48.092;-1.640;2023-01-04T16:24:55;15.70;99.90
76120;DHT22;64852;48.092;-1.640;2023-01-04T16:27:21;15.90;99.90
76120;DHT22;64852;48.092;-1.640;2023-01-04T16:29:48;15.80;99.90
76120;DHT22;64852;48.092;-1.640;2023-01-04T16:32:15;15.80;99.90
76120;DHT22;64852;48.092;-1.640;2023-01-04T16:34:41;15.60;99.90
76120;DHT22;64852;48.092;-1.640;2023-01-04T16:37:06;15.70;99.90
76120;DHT22;64852;48.092;-1.640;2023-01-04T16:39:32;15.80;99.90
76120;DHT22;64852;48.092;-1.640;2023-01-04T16:41:58;15.70;99.90
76120;DHT22;64852;48.092;-1.640;2023-01-04T16:44:23;15.70;99.90
76120;DHT22;64852;48.092;-1.640;2023-01-04T16:46:49;15.90;99.90
76120;DHT22;64852;48.092;-1.640;2023-01-04T16:49:16;16.00;99.90
76120;DHT22;64852;48.092;-1.640;2023-01-04T16:51:44;15.70;99.90
76120;DHT22;64852;48.092;-1.640;2023-01-04T16:54:15;15.50;99.90
76120;DHT22;64852;48.092;-1.640;2023-01-04T16:56:42;15.70;99.90
76120;DHT22;64852;48.092;-1.640;2023-01-04T16:59:11;15.60;99.90
76120;DHT22;64852;48.092;-1.640;2023-01-04T17:01:37;15.60;99.90
76120;DHT22;64852;48.092;-1.640;2023-01-04T17:04:06;15.50;99.90
76120;DHT22;64852;48.092;-1.640;2023-01-04T17:06:41;15.70;99.90
76120;DHT22;64852;48.092;-1.640;2023-01-04T17:09:17;15.60;99.90
76120;DHT22;64852;48.092;-1.640;2023-01-04T17:11:44;15.70;99.90
76120;DHT22;64852;48.092;-1.640;2023-01-04T17:14:21;15.60;99.90
76120;DHT22;64852;48.092;-1.640;2023-01-04T17:16:47;15.70;99.90
76120;DHT22;64852;48.092;-1.640;2023-01-04T17:19:13;15.80;99.90
76120;DHT22;64852;48.092;-1.640;2023-01-04T17:21:39;15.80;99.90
76120;DHT22;64852;48.092;-1.640;2023-01-04T17:24:04;15.80;99.90
76120;DHT22;64852;48.092;-1.640;2023-01-04T17:26:31;15.70;99.90
76120;DHT22;64852;48.092;-1.640;2023-01-04T17:28:59;15.70;99.90
76120;DHT22;64852;48.092;-1.640;2023-01-04T17:31:28;15.70;99.90
76120;DHT22;64852;48.092;-1.640;2023-01-04T17:33:54;15.50;99.90
76120;DHT22;64852;48.092;-1.640;2023-01-04T17:36:20;15.50;99.90
76120;DHT22;64852;48.092;-1.640;2023-01-04T17:38:47;15.50;99.90
76120;DHT22;64852;48.092;-1.640;2023-01-04T17:43:43;15.50;99.90
76120;DHT22;64852;48.092;-1.640;2023-01-04T17:46:11;15.50;99.90
76120;DHT22;64852;48.092;-1.640;2023-01-04T17:48:37;15.60;99.90